sensor_id;sensor_type;location;lat;lon;timestamp;pressure;altitude;pressure_sealevel;temperature;humidity
55066;BME280;40964;42.114;24.220;2022-11-24T00:01:28;96816.03;;;6.31;100.00
55066;BME280;40964;42.114;24.220;2022-11-24T00:04:03;96824.75;;;6.43;100.00
55066;BME280;40964;42.114;24.220;2022-11-24T00:06:30;96827.16;;;6.45;100.00
55066;BME280;40964;42.114;24.220;2022-11-24T00:08:57;96821.53;;;6.48;100.00
55066;BME280;40964;42.114;24.220;2022-11-24T00:11:28;96826.03;;;6.59;100.00
55066;BME280;40964;42.114;24.220;2022-11-24T00:13:54;96804.41;;;6.52;100.00
55066;BME280;40964;42.114;24.220;2022-11-24T00:16:23;96828.59;;;6.66;100.00
55066;BME280;40964;42.114;24.220;2022-11-24T00:18:52;96835.19;;;6.68;100.00
55066;BME280;40964;42.114;24.220;2022-11-24T00:21:18;96833.53;;;6.74;100.00
55066;BME280;40964;42.114;24.220;2022-11-24T00:23:45;96837.09;;;6.79;100.00
55066;BME280;40964;42.114;24.220;2022-11-24T00:28:40;96841.91;;;7.01;100.00
55066;BME280;40964;42.114;24.220;2022-11-24T00:31:25;96839.66;;;7.04;100.00
55066;BME280;40964;42.114;24.220;2022-11-24T00:33:53;96842.41;;;7.09;100.00
55066;BME280;40964;42.114;24.220;2022-11-24T00:36:20;96845.53;;;7.18;100.00
55066;BME280;40964;42.114;24.220;2022-11-24T00:38:46;96846.84;;;7.27;100.00
55066;BME280;40964;42.114;24.220;2022-11-24T00:41:13;96845.63;;;7.30;100.00
55066;BME280;40964;42.114;24.220;2022-11-24T00:43:38;96840.75;;;7.33;100.00
55066;BME280;40964;42.114;24.220;2022-11-24T00:46:04;96845.41;;;7.31;100.00
55066;BME280;40964;42.114;24.220;2022-11-24T00:48:29;96842.22;;;7.29;100.00
55066;BME280;40964;42.114;24.220;2022-11-24T00:50:57;96825.41;;;7.19;100.00
55066;BME280;40964;42.114;24.220;2022-11-24T00:53:23;96843.81;;;7.30;100.00
55066;BME280;40964;42.114;24.220;2022-11-24T00:55:50;96851.00;;;7.35;100.00
55066;BME280;40964;42.114;24.220;2022-11-24T00:58:16;96852.53;;;7.43;100.00
55066;BME280;40964;42.114;24.220;2022-11-24T01:00:42;96849.56;;;7.39;100.00
55066;BME280;40964;42.114;24.220;2022-11-24T01:03:07;96856.22;;;7.35;100.00
55066;BME280;40964;42.114;24.220;2022-11-24T01:05:37;96856.22;;;7.35;100.00
55066;BME280;40964;42.114;24.220;2022-11-24T01:08:02;96844.38;;;7.32;100.00
55066;BME280;40964;42.114;24.220;2022-11-24T01:10:28;96842.91;;;7.36;100.00
55066;BME280;40964;42.114;24.220;2022-11-24T01:12:53;96842.84;;;7.43;100.00
55066;BME280;40964;42.114;24.220;2022-11-24T01:15:19;96846.84;;;7.46;100.00
55066;BME280;40964;42.114;24.220;2022-11-24T01:17:44;96835.69;;;7.38;100.00
55066;BME280;40964;42.114;24.220;2022-11-24T01:20:10;96844.22;;;7.46;100.00
55066;BME280;40964;42.114;24.220;2022-11-24T01:22:36;96840.00;;;7.45;100.00
55066;BME280;40964;42.114;24.220;2022-11-24T01:25:04;96849.25;;;7.47;100.00
55066;BME280;40964;42.114;24.220;2022-11-24T01:27:30;96845.25;;;7.45;100.00
55066;BME280;40964;42.114;24.220;2022-11-24T01:29:56;96830.88;;;7.35;98.93
55066;BME280;40964;42.114;24.220;2022-11-24T01:32:21;96841.13;;;7.37;98.08
55066;BME280;40964;42.114;24.220;2022-11-24T01:34:47;96852.06;;;7.27;97.72
55066;BME280;40964;42.114;24.220;2022-11-24T01:37:13;96851.94;;;7.04;100.00
55066;BME280;40964;42.114;24.220;2022-11-24T01:39:39;96851.38;;;7.02;100.00
55066;BME280;40964;42.114;24.220;2022-11-24T01:42:05;96850.13;;;7.04;100.00
55066;BME280;40964;42.114;24.220;2022-11-24T01:44:31;96850.56;;;7.01;100.00
55066;BME280;40964;42.114;24.220;2022-11-24T01:49:50;96801.09;;;6.81;100.00
55066;BME280;40964;42.114;24.220;2022-11-24T01:52:32;96844.97;;;7.16;100.00
55066;BME280;40964;42.114;24.220;2022-11-24T01:55:02;96839.75;;;7.16;100.00
55066;BME280;40964;42.114;24.220;2022-11-24T01:57:52;96834.56;;;7.09;100.00
55066;BME280;40964;42.114;24.220;2022-11-24T02:00:19;96854.56;;;7.04;99.98
55066;BME280;40964;42.114;24.220;2022-11-24T02:02:45;96854.97;;;7.01;99.37
55066;BME280;40964;42.114;24.220;2022-11-24T02:05:21;96854.91;;;6.89;99.21
55066;BME280;40964;42.114;24.220;2022-11-24T02:07:50;96846.69;;;6.86;99.28
55066;BME280;40964;42.114;24.220;2022-11-24T02:10:18;96845.00;;;6.91;98.22
55066;BME280;40964;42.114;24.220;2022-11-24T02:12:46;96846.84;;;6.91;98.28
55066;BME280;40964;42.114;24.220;2022-11-24T02:15:14;96843.91;;;6.80;98.39
55066;BME280;40964;42.114;24.220;2022-11-24T02:17:40;96833.81;;;6.66;99.06
55066;BME280;40964;42.114;24.220;2022-11-24T02:20:10;96849.63;;;6.71;99.66
55066;BME280;40964;42.114;24.220;2022-11-24T02:25:30;96865.47;;;6.51;100.00
55066;BME280;40964;42.114;24.220;2022-11-24T02:28:00;96857.13;;;6.42;100.00
55066;BME280;40964;42.114;24.220;2022-11-24T02:30:27;96856.34;;;6.35;100.00
55066;BME280;40964;42.114;24.220;2022-11-24T02:32:53;96859.06;;;6.47;100.00
55066;BME280;40964;42.114;24.220;2022-11-24T02:35:18;96855.88;;;6.45;100.00
55066;BME280;40964;42.114;24.220;2022-11-24T02:37:44;96856.69;;;6.45;100.00
55066;BME280;40964;42.114;24.220;2022-11-24T02:40:11;96857.47;;;6.46;100.00
55066;BME280;40964;42.114;24.220;2022-11-24T02:42:41;96857.88;;;6.49;100.00
55066;BME280;40964;42.114;24.220;2022-11-24T02:45:08;96862.34;;;6.42;100.00
55066;BME280;40964;42.114;24.220;2022-11-24T02:47:34;96857.28;;;6.47;100.00
55066;BME280;40964;42.114;24.220;2022-11-24T02:50:00;96850.00;;;6.56;100.00
55066;BME280;40964;42.114;24.220;2022-11-24T02:52:26;96850.16;;;6.54;100.00
55066;BME280;40964;42.114;24.220;2022-11-24T02:54:51;96851.38;;;6.59;100.00
55066;BME280;40964;42.114;24.220;2022-11-24T02:57:17;96845.75;;;6.55;100.00
55066;BME280;40964;42.114;24.220;2022-11-24T02:59:42;96857.16;;;6.61;100.00
55066;BME280;40964;42.114;24.220;2022-11-24T03:02:08;96848.34;;;6.55;100.00
55066;BME280;40964;42.114;24.220;2022-11-24T03:04:34;96853.19;;;6.58;100.00
55066;BME280;40964;42.114;24.220;2022-11-24T03:07:00;96862.66;;;6.52;100.00
55066;BME280;40964;42.114;24.220;2022-11-24T03:09:25;96866.72;;;6.48;100.00
55066;BME280;40964;42.114;24.220;2022-11-24T03:11:51;96862.69;;;6.46;100.00
55066;BME280;40964;42.114;24.220;2022-11-24T03:14:16;96868.31;;;6.49;100.00
55066;BME280;40964;42.114;24.220;2022-11-24T03:16:42;96864.91;;;6.49;100.00
55066;BME280;40964;42.114;24.220;2022-11-24T03:19:07;96866.44;;;6.32;100.00
55066;BME280;40964;42.114;24.220;2022-11-24T03:21:35;96861.78;;;6.34;100.00
55066;BME280;40964;42.114;24.220;2022-11-24T03:24:00;96867.19;;;6.39;100.00
55066;BME280;40964;42.114;24.220;2022-11-24T03:26:26;96870.97;;;6.43;100.00
55066;BME280;40964;42.114;24.220;2022-11-24T03:28:53;96872.59;;;6.37;100.00
55066;BME280;40964;42.114;24.220;2022-11-24T03:31:20;96863.97;;;6.37;100.00
55066;BME280;40964;42.114;24.220;2022-11-24T03:33:46;96864.41;;;6.34;100.00
55066;BME280;40964;42.114;24.220;2022-11-24T03:36:11;96861.78;;;6.34;100.00
55066;BME280;40964;42.114;24.220;2022-11-24T03:38:37;96871.34;;;6.21;100.00
55066;BME280;40964;42.114;24.220;2022-11-24T03:41:02;96868.91;;;6.20;100.00
55066;BME280;40964;42.114;24.220;2022-11-24T03:43:28;96863.16;;;6.11;100.00
55066;BME280;40964;42.114;24.220;2022-11-24T03:45:53;96875.75;;;6.21;100.00
55066;BME280;40964;42.114;24.220;2022-11-24T03:48:19;96877.09;;;6.30;100.00
55066;BME280;40964;42.114;24.220;2022-11-24T03:51:11;96878.31;;;6.28;100.00
55066;BME280;40964;42.114;24.220;2022-11-24T03:53:37;96887.31;;;6.32;100.00
55066;BME280;40964;42.114;24.220;2022-11-24T03:56:03;96892.91;;;6.35;100.00
55066;BME280;40964;42.114;24.220;2022-11-24T03:58:29;96888.13;;;6.32;99.92
55066;BME280;40964;42.114;24.220;2022-11-24T04:00:55;96891.31;;;6.34;99.67
55066;BME280;40964;42.114;24.220;2022-11-24T04:03:21;96895.38;;;6.30;99.80
55066;BME280;40964;42.114;24.220;2022-11-24T04:05:47;96892.94;;;6.29;99.81
55066;BME280;40964;42.114;24.220;2022-11-24T04:08:13;96891.97;;;6.30;99.85
55066;BME280;40964;42.114;24.220;2022-11-24T04:10:39;96892.00;;;6.23;100.00
55066;BME280;40964;42.114;24.220;2022-11-24T04:13:14;96896.78;;;6.26;100.00
55066;BME280;40964;42.114;24.220;2022-11-24T04:15:41;96896.22;;;6.24;100.00
55066;BME280;40964;42.114;24.220;2022-11-24T04:18:07;96899.63;;;6.24;100.00
55066;BME280;40964;42.114;24.220;2022-11-24T04:20:34;96900.41;;;6.25;100.00
55066;BME280;40964;42.114;24.220;2022-11-24T04:23:00;96891.16;;;6.29;100.00
55066;BME280;40964;42.114;24.220;2022-11-24T04:25:26;96902.13;;;6.38;100.00
55066;BME280;40964;42.114;24.220;2022-11-24T04:27:53;96900.94;;;6.40;100.00
55066;BME280;40964;42.114;24.220;2022-11-24T04:30:20;96897.88;;;6.43;99.32
55066;BME280;40964;42.114;24.220;2022-11-24T04:32:46;96904.44;;;6.52;98.72
55066;BME280;40964;42.114;24.220;2022-11-24T04:35:12;96898.00;;;6.55;98.36
55066;BME280;40964;42.114;24.220;2022-11-24T04:37:37;96902.63;;;6.53;97.93
55066;BME280;40964;42.114;24.220;2022-11-24T04:40:04;96903.22;;;6.55;97.90
55066;BME280;40964;42.114;24.220;2022-11-24T04:42:30;96902.84;;;6.51;97.38
55066;BME280;40964;42.114;24.220;2022-11-24T04:44:55;96907.31;;;6.44;97.58
55066;BME280;40964;42.114;24.220;2022-11-24T04:47:22;96906.56;;;6.37;98.50
55066;BME280;40964;42.114;24.220;2022-11-24T04:49:49;96917.06;;;6.31;98.76
55066;BME280;40964;42.114;24.220;2022-11-24T04:52:16;96899.50;;;6.13;99.40
55066;BME280;40964;42.114;24.220;2022-11-24T04:54:41;96915.91;;;6.20;99.96
55066;BME280;40964;42.114;24.220;2022-11-24T04:57:14;96919.53;;;6.19;99.93
55066;BME280;40964;42.114;24.220;2022-11-24T04:59:40;96916.31;;;6.17;100.00
55066;BME280;40964;42.114;24.220;2022-11-24T05:02:05;96923.56;;;6.15;100.00
55066;BME280;40964;42.114;24.220;2022-11-24T05:04:31;96917.56;;;6.14;99.77
55066;BME280;40964;42.114;24.220;2022-11-24T05:06:56;96929.97;;;6.19;99.42
55066;BME280;40964;42.114;24.220;2022-11-24T05:09:22;96924.16;;;6.17;99.03
55066;BME280;40964;42.114;24.220;2022-11-24T05:11:47;96925.53;;;6.19;98.70
55066;BME280;40964;42.114;24.220;2022-11-24T05:14:12;96920.38;;;6.13;98.88
55066;BME280;40964;42.114;24.220;2022-11-24T05:16:38;96929.41;;;6.10;99.42
55066;BME280;40964;42.114;24.220;2022-11-24T05:19:03;96937.69;;;6.01;100.00
55066;BME280;40964;42.114;24.220;2022-11-24T05:21:29;96942.97;;;5.94;100.00
55066;BME280;40964;42.114;24.220;2022-11-24T05:23:54;96939.34;;;5.95;100.00
55066;BME280;40964;42.114;24.220;2022-11-24T05:26:20;96939.94;;;5.84;100.00
55066;BME280;40964;42.114;24.220;2022-11-24T05:28:45;96941.97;;;5.82;100.00
55066;BME280;40964;42.114;24.220;2022-11-24T05:31:11;96947.78;;;5.84;100.00
55066;BME280;40964;42.114;24.220;2022-11-24T05:33:36;96934.72;;;5.84;100.00
55066;BME280;40964;42.114;24.220;2022-11-24T05:36:04;96942.75;;;5.89;100.00
55066;BME280;40964;42.114;24.220;2022-11-24T05:38:30;96941.16;;;5.81;100.00
55066;BME280;40964;42.114;24.220;2022-11-24T05:41:05;96949.56;;;5.90;100.00
55066;BME280;40964;42.114;24.220;2022-11-24T05:43:30;96949.00;;;5.81;100.00
55066;BME280;40964;42.114;24.220;2022-11-24T05:46:00;96945.22;;;5.70;100.00
55066;BME280;40964;42.114;24.220;2022-11-24T05:48:26;96949.00;;;5.75;100.00
55066;BME280;40964;42.114;24.220;2022-11-24T05:50:54;96947.59;;;5.79;100.00
55066;BME280;40964;42.114;24.220;2022-11-24T05:53:19;96954.22;;;5.81;100.00
55066;BME280;40964;42.114;24.220;2022-11-24T05:55:45;96949.78;;;5.82;100.00
55066;BME280;40964;42.114;24.220;2022-11-24T05:58:10;96947.38;;;5.80;100.00
55066;BME280;40964;42.114;24.220;2022-11-24T06:00:36;96947.78;;;5.90;100.00
55066;BME280;40964;42.114;24.220;2022-11-24T06:03:01;96951.16;;;5.97;100.00
55066;BME280;40964;42.114;24.220;2022-11-24T06:05:28;96947.94;;;6.02;100.00
55066;BME280;40964;42.114;24.220;2022-11-24T06:07:54;96956.75;;;6.08;100.00
55066;BME280;40964;42.114;24.220;2022-11-24T06:10:21;96956.72;;;6.14;100.00
55066;BME280;40964;42.114;24.220;2022-11-24T06:12:50;96960.91;;;6.22;100.00
55066;BME280;40964;42.114;24.220;2022-11-24T06:15:16;96968.50;;;6.30;100.00
55066;BME280;40964;42.114;24.220;2022-11-24T06:17:42;96967.63;;;6.36;100.00
55066;BME280;40964;42.114;24.220;2022-11-24T06:20:08;96971.19;;;6.48;100.00
55066;BME280;40964;42.114;24.220;2022-11-24T06:22:34;96975.16;;;6.58;100.00
55066;BME280;40964;42.114;24.220;2022-11-24T06:25:00;96983.53;;;6.66;100.00
55066;BME280;40964;42.114;24.220;2022-11-24T06:27:26;96982.63;;;6.79;100.00
55066;BME280;40964;42.114;24.220;2022-11-24T06:29:51;96988.97;;;6.90;99.43
55066;BME280;40964;42.114;24.220;2022-11-24T06:32:17;96982.91;;;6.96;98.86
55066;BME280;40964;42.114;24.220;2022-11-24T06:34:43;96989.03;;;7.08;98.76
55066;BME280;40964;42.114;24.220;2022-11-24T06:37:09;96997.63;;;7.15;98.58
55066;BME280;40964;42.114;24.220;2022-11-24T06:39:34;96994.97;;;7.22;98.57
55066;BME280;40964;42.114;24.220;2022-11-24T06:42:00;97000.50;;;7.32;98.51
55066;BME280;40964;42.114;24.220;2022-11-24T06:44:25;96992.63;;;7.38;98.38
55066;BME280;40964;42.114;24.220;2022-11-24T06:46:51;96992.47;;;7.52;97.95
55066;BME280;40964;42.114;24.220;2022-11-24T06:49:16;96993.56;;;7.62;97.04
55066;BME280;40964;42.114;24.220;2022-11-24T06:51:42;97000.13;;;7.72;96.74
55066;BME280;40964;42.114;24.220;2022-11-24T06:54:08;96998.00;;;7.80;96.21
55066;BME280;40964;42.114;24.220;2022-11-24T06:56:34;96992.16;;;7.85;95.48
55066;BME280;40964;42.114;24.220;2022-11-24T06:59:04;97000.00;;;8.03;95.10
55066;BME280;40964;42.114;24.220;2022-11-24T07:01:30;96987.47;;;8.05;95.54
55066;BME280;40964;42.114;24.220;2022-11-24T07:03:56;96999.75;;;8.23;94.90
55066;BME280;40964;42.114;24.220;2022-11-24T07:06:24;96997.84;;;8.30;94.75
55066;BME280;40964;42.114;24.220;2022-11-24T07:08:50;97008.63;;;8.40;95.64
55066;BME280;40964;42.114;24.220;2022-11-24T07:11:17;97003.41;;;8.52;97.24
55066;BME280;40964;42.114;24.220;2022-11-24T07:13:44;97000.41;;;8.67;100.00
55066;BME280;40964;42.114;24.220;2022-11-24T07:16:30;97004.31;;;8.76;100.00
55066;BME280;40964;42.114;24.220;2022-11-24T07:18:56;97009.34;;;8.89;100.00
55066;BME280;40964;42.114;24.220;2022-11-24T07:21:23;97001.94;;;8.98;100.00
55066;BME280;40964;42.114;24.220;2022-11-24T07:23:52;97003.69;;;9.16;100.00
55066;BME280;40964;42.114;24.220;2022-11-24T07:26:18;97010.91;;;9.32;100.00
55066;BME280;40964;42.114;24.220;2022-11-24T07:28:44;97010.91;;;9.44;99.34
55066;BME280;40964;42.114;24.220;2022-11-24T07:31:15;97016.97;;;9.44;99.98
55066;BME280;40964;42.114;24.220;2022-11-24T07:33:46;97022.22;;;9.44;99.49
55066;BME280;40964;42.114;24.220;2022-11-24T07:36:12;97022.78;;;9.58;99.14
55066;BME280;40964;42.114;24.220;2022-11-24T07:38:37;97016.16;;;9.67;94.20
55066;BME280;40964;42.114;24.220;2022-11-24T07:41:05;97004.63;;;9.68;95.50
55066;BME280;40964;42.114;24.220;2022-11-24T07:43:31;97018.63;;;9.97;96.02
55066;BME280;40964;42.114;24.220;2022-11-24T07:45:57;97014.59;;;10.06;94.56
55066;BME280;40964;42.114;24.220;2022-11-24T07:48:23;97010.38;;;10.17;93.75
55066;BME280;40964;42.114;24.220;2022-11-24T07:50:48;97023.50;;;10.29;90.66
55066;BME280;40964;42.114;24.220;2022-11-24T07:53:15;97024.16;;;10.36;89.97
55066;BME280;40964;42.114;24.220;2022-11-24T07:55:40;97021.00;;;10.50;89.17
55066;BME280;40964;42.114;24.220;2022-11-24T07:58:06;97025.66;;;10.60;87.53
55066;BME280;40964;42.114;24.220;2022-11-24T08:00:31;97013.94;;;10.79;87.34
55066;BME280;40964;42.114;24.220;2022-11-24T08:02:57;97021.38;;;10.99;87.22
55066;BME280;40964;42.114;24.220;2022-11-24T08:05:22;97019.56;;;11.17;85.87
55066;BME280;40964;42.114;24.220;2022-11-24T08:07:48;97021.16;;;11.34;83.94
55066;BME280;40964;42.114;24.220;2022-11-24T08:10:13;97027.66;;;11.49;84.05
55066;BME280;40964;42.114;24.220;2022-11-24T08:12:39;97025.75;;;11.61;84.42
55066;BME280;40964;42.114;24.220;2022-11-24T08:15:05;97025.94;;;11.76;83.18
55066;BME280;40964;42.114;24.220;2022-11-24T08:17:32;97025.09;;;11.87;83.41
55066;BME280;40964;42.114;24.220;2022-11-24T08:19:57;97021.56;;;11.99;82.96
55066;BME280;40964;42.114;24.220;2022-11-24T08:22:22;97027.75;;;12.09;82.05
55066;BME280;40964;42.114;24.220;2022-11-24T08:24:48;97024.97;;;12.21;82.05
55066;BME280;40964;42.114;24.220;2022-11-24T08:27:15;97013.53;;;12.32;81.64
55066;BME280;40964;42.114;24.220;2022-11-24T08:29:42;97011.47;;;12.39;81.06
55066;BME280;40964;42.114;24.220;2022-11-24T08:32:08;97013.25;;;12.56;77.16
55066;BME280;40964;42.114;24.220;2022-11-24T08:34:34;97008.03;;;12.61;77.32
55066;BME280;40964;42.114;24.220;2022-11-24T08:36:59;97019.28;;;12.78;77.63
55066;BME280;40964;42.114;24.220;2022-11-24T08:39:25;97022.06;;;12.93;71.61
55066;BME280;40964;42.114;24.220;2022-11-24T08:41:50;97021.69;;;12.79;67.96
55066;BME280;40964;42.114;24.220;2022-11-24T08:44:16;97020.13;;;12.84;66.85
55066;BME280;40964;42.114;24.220;2022-11-24T08:46:43;97017.47;;;12.84;68.34
55066;BME280;40964;42.114;24.220;2022-11-24T08:49:10;97030.28;;;12.70;67.71
55066;BME280;40964;42.114;24.220;2022-11-24T08:58:54;97026.03;;;11.98;88.35
55066;BME280;40964;42.114;24.220;2022-11-24T09:01:20;97031.44;;;12.08;86.85
55066;BME280;40964;42.114;24.220;2022-11-24T09:03:47;97023.78;;;12.07;85.65
55066;BME280;40964;42.114;24.220;2022-11-24T09:06:14;97026.16;;;12.08;88.04
55066;BME280;40964;42.114;24.220;2022-11-24T09:08:40;97025.06;;;12.04;88.39
55066;BME280;40964;42.114;24.220;2022-11-24T09:11:08;97035.22;;;12.17;86.97
55066;BME280;40964;42.114;24.220;2022-11-24T09:13:34;97032.06;;;12.15;84.95
55066;BME280;40964;42.114;24.220;2022-11-24T09:16:04;97039.72;;;12.17;83.59
55066;BME280;40964;42.114;24.220;2022-11-24T09:18:30;97038.28;;;12.09;79.94
55066;BME280;40964;42.114;24.220;2022-11-24T09:21:17;97032.88;;;12.21;74.67
55066;BME280;40964;42.114;24.220;2022-11-24T09:23:45;97037.25;;;12.32;72.41
55066;BME280;40964;42.114;24.220;2022-11-24T09:26:27;97032.59;;;12.39;72.09
55066;BME280;40964;42.114;24.220;2022-11-24T09:28:56;97035.22;;;12.61;73.14
55066;BME280;40964;42.114;24.220;2022-11-24T09:31:27;97034.53;;;12.71;71.16
55066;BME280;40964;42.114;24.220;2022-11-24T09:33:53;97026.78;;;12.91;71.12
55066;BME280;40964;42.114;24.220;2022-11-24T09:36:19;97032.69;;;12.98;70.50
55066;BME280;40964;42.114;24.220;2022-11-24T09:38:45;97023.91;;;13.20;70.93
55066;BME280;40964;42.114;24.220;2022-11-24T09:52:40;97025.63;;;14.20;67.38
55066;BME280;40964;42.114;24.220;2022-11-24T09:55:27;97024.38;;;14.38;64.01
55066;BME280;40964;42.114;24.220;2022-11-24T09:58:08;97015.22;;;14.76;65.11
55066;BME280;40964;42.114;24.220;2022-11-24T10:00:36;97007.78;;;14.73;61.45
55066;BME280;40964;42.114;24.220;2022-11-24T10:03:01;97010.97;;;14.70;62.68
55066;BME280;40964;42.114;24.220;2022-11-24T10:05:29;97009.59;;;14.53;60.54
55066;BME280;40964;42.114;24.220;2022-11-24T10:11:05;97003.72;;;14.40;60.50
55066;BME280;40964;42.114;24.220;2022-11-24T10:13:46;97013.84;;;14.48;61.21
55066;BME280;40964;42.114;24.220;2022-11-24T10:19:23;97009.88;;;14.51;59.87
55066;BME280;40964;42.114;24.220;2022-11-24T10:27:39;97019.94;;;14.54;56.85
55066;BME280;40964;42.114;24.220;2022-11-24T10:30:32;97021.25;;;14.52;58.15
55066;BME280;40964;42.114;24.220;2022-11-24T10:33:02;97022.34;;;14.61;56.05
55066;BME280;40964;42.114;24.220;2022-11-24T10:35:42;97029.19;;;14.52;57.48
55066;BME280;40964;42.114;24.220;2022-11-24T10:38:28;97028.56;;;14.29;57.79
55066;BME280;40964;42.114;24.220;2022-11-24T10:41:00;97035.38;;;14.15;57.08
55066;BME280;40964;42.114;24.220;2022-11-24T10:43:28;97027.91;;;14.07;57.50
55066;BME280;40964;42.114;24.220;2022-11-24T10:46:17;97028.44;;;14.04;59.72
55066;BME280;40964;42.114;24.220;2022-11-24T10:48:50;97034.75;;;13.98;61.02
55066;BME280;40964;42.114;24.220;2022-11-24T10:54:15;97032.84;;;13.88;59.33
55066;BME280;40964;42.114;24.220;2022-11-24T10:56:42;97032.47;;;13.74;62.00
55066;BME280;40964;42.114;24.220;2022-11-24T10:59:37;97023.44;;;13.65;63.46
55066;BME280;40964;42.114;24.220;2022-11-24T11:02:30;97025.81;;;13.61;64.00
55066;BME280;40964;42.114;24.220;2022-11-24T11:04:55;97031.56;;;13.53;65.28
55066;BME280;40964;42.114;24.220;2022-11-24T11:07:23;97035.78;;;13.49;66.32
55066;BME280;40964;42.114;24.220;2022-11-24T11:09:50;97026.75;;;13.45;66.78
55066;BME280;40964;42.114;24.220;2022-11-24T11:12:35;97028.78;;;13.33;67.39
55066;BME280;40964;42.114;24.220;2022-11-24T11:15:29;97032.47;;;13.05;68.19
55066;BME280;40964;42.114;24.220;2022-11-24T11:17:59;97034.22;;;12.94;69.24
55066;BME280;40964;42.114;24.220;2022-11-24T11:20:34;97039.28;;;12.74;70.12
55066;BME280;40964;42.114;24.220;2022-11-24T11:23:14;97040.13;;;12.53;70.80
55066;BME280;40964;42.114;24.220;2022-11-24T11:25:43;97032.03;;;12.37;72.49
55066;BME280;40964;42.114;24.220;2022-11-24T11:28:22;97037.84;;;12.39;71.48
55066;BME280;40964;42.114;24.220;2022-11-24T11:30:59;97047.91;;;12.20;72.79
55066;BME280;40964;42.114;24.220;2022-11-24T11:33:28;97047.91;;;12.20;73.53
55066;BME280;40964;42.114;24.220;2022-11-24T11:35:55;97027.69;;;12.04;73.05
55066;BME280;40964;42.114;24.220;2022-11-24T11:38:23;97029.03;;;12.07;75.24
55066;BME280;40964;42.114;24.220;2022-11-24T11:40:51;97030.00;;;12.01;74.36
55066;BME280;40964;42.114;24.220;2022-11-24T11:43:30;97028.97;;;12.02;74.32
55066;BME280;40964;42.114;24.220;2022-11-24T11:46:07;97041.47;;;11.89;73.34
55066;BME280;40964;42.114;24.220;2022-11-24T11:48:37;97028.13;;;11.79;74.86
55066;BME280;40964;42.114;24.220;2022-11-24T12:00:14;97045.56;;;11.80;75.21
55066;BME280;40964;42.114;24.220;2022-11-24T12:05:29;97038.91;;;11.78;73.67
55066;BME280;40964;42.114;24.220;2022-11-24T12:11:37;97050.06;;;11.85;73.74
55066;BME280;40964;42.114;24.220;2022-11-24T12:14:24;97055.91;;;11.70;73.24
55066;BME280;40964;42.114;24.220;2022-11-24T12:17:06;97054.00;;;11.65;72.72
55066;BME280;40964;42.114;24.220;2022-11-24T12:20:06;97052.09;;;11.61;72.24
55066;BME280;40964;42.114;24.220;2022-11-24T12:25:29;97049.47;;;11.61;72.84
55066;BME280;40964;42.114;24.220;2022-11-24T12:36:40;97065.91;;;11.51;72.44
55066;BME280;40964;42.114;24.220;2022-11-24T12:42:44;97074.59;;;11.35;70.98
55066;BME280;40964;42.114;24.220;2022-11-24T12:45:16;97076.56;;;11.28;71.03
55066;BME280;40964;42.114;24.220;2022-11-24T12:50:35;97088.59;;;11.07;69.76
55066;BME280;40964;42.114;24.220;2022-11-24T12:53:07;97090.81;;;10.98;69.00
55066;BME280;40964;42.114;24.220;2022-11-24T12:55:36;97088.06;;;10.93;68.11
55066;BME280;40964;42.114;24.220;2022-11-24T12:58:28;97090.41;;;10.90;67.93
55066;BME280;40964;42.114;24.220;2022-11-24T13:08:58;97108.22;;;10.59;68.42
55066;BME280;40964;42.114;24.220;2022-11-24T13:11:38;97110.63;;;10.61;68.01
55066;BME280;40964;42.114;24.220;2022-11-24T13:16:47;97129.03;;;10.49;66.31
55066;BME280;40964;42.114;24.220;2022-11-24T13:19:17;97129.06;;;10.37;67.96
55066;BME280;40964;42.114;24.220;2022-11-24T13:21:47;97135.78;;;10.33;68.07
55066;BME280;40964;42.114;24.220;2022-11-24T13:29:46;97139.13;;;10.17;69.87
55066;BME280;40964;42.114;24.220;2022-11-24T13:42:20;97150.88;;;9.91;70.06
55066;BME280;40964;42.114;24.220;2022-11-24T13:44:50;97160.00;;;9.88;71.48
55066;BME280;40964;42.114;24.220;2022-11-24T13:49:56;97161.47;;;9.73;73.19
55066;BME280;40964;42.114;24.220;2022-11-24T13:57:38;97153.16;;;9.34;77.63
55066;BME280;40964;42.114;24.220;2022-11-24T14:00:31;97148.03;;;9.27;79.24
55066;BME280;40964;42.114;24.220;2022-11-24T14:03:00;97159.31;;;9.28;80.75
55066;BME280;40964;42.114;24.220;2022-11-24T14:05:39;97156.94;;;9.26;83.04
55066;BME280;40964;42.114;24.220;2022-11-24T14:08:06;97158.69;;;9.14;82.11
55066;BME280;40964;42.114;24.220;2022-11-24T14:10:41;97165.75;;;9.14;81.13
55066;BME280;40964;42.114;24.220;2022-11-24T14:16:20;97177.31;;;8.94;82.81
55066;BME280;40964;42.114;24.220;2022-11-24T14:18:49;97183.88;;;8.85;82.68
55066;BME280;40964;42.114;24.220;2022-11-24T14:21:27;97195.84;;;8.81;82.19
55066;BME280;40964;42.114;24.220;2022-11-24T14:24:22;97187.47;;;8.72;80.78
55066;BME280;40964;42.114;24.220;2022-11-24T14:26:49;97195.53;;;8.71;81.92
55066;BME280;40964;42.114;24.220;2022-11-24T14:29:22;97195.97;;;8.68;81.84
55066;BME280;40964;42.114;24.220;2022-11-24T14:31:52;97189.94;;;8.67;83.40
55066;BME280;40964;42.114;24.220;2022-11-24T14:34:19;97184.34;;;8.64;83.08
55066;BME280;40964;42.114;24.220;2022-11-24T14:36:49;97194.09;;;8.57;84.14
55066;BME280;40964;42.114;24.220;2022-11-24T14:39:20;97182.06;;;8.49;84.63
55066;BME280;40964;42.114;24.220;2022-11-24T14:42:02;97201.72;;;8.58;84.46
55066;BME280;40964;42.114;24.220;2022-11-24T14:44:54;97206.22;;;8.51;84.79
55066;BME280;40964;42.114;24.220;2022-11-24T14:47:22;97207.91;;;8.45;83.71
55066;BME280;40964;42.114;24.220;2022-11-24T14:49:49;97220.00;;;8.46;82.63
55066;BME280;40964;42.114;24.220;2022-11-24T14:52:17;97221.22;;;8.44;81.57
55066;BME280;40964;42.114;24.220;2022-11-24T14:54:54;97223.13;;;8.37;81.64